Time;durP1;ratioP1;P1;durP2;ratioP2;P2;SDS_P1;SDS_P2;PMS_P1;PMS_P2;Temp;Humidity;BMP_temperature;BMP_pressure;BME280_temperature;BME280_humidity;BME280_pressure;Samples;Min_cycle;Max_cycle;Signal;HPM_P1;HPM_P2
2021/04/28 00:02:01;;;;;;;6.82;4.20;;;;;;;8.09;64.56;100983.59;5070508;28;20607;-49
2021/04/28 00:04:28;;;;;;;6.65;4.22;;;;;;;8.04;64.59;100978.84;5070785;28;20052;-46
2021/04/28 00:06:55;;;;;;;6.97;4.30;;;;;;;8.02;64.45;100975.53;5070018;28;20495;-49
2021/04/28 00:09:23;;;;;;;7.20;4.20;;;;;;;7.98;64.51;100980.00;5070746;28;20051;-46
2021/04/28 00:11:50;;;;;;;6.75;4.43;;;;;;;7.94;64.82;100976.09;5071330;28;20052;-46
2021/04/28 00:14:17;;;;;;;7.70;3.78;;;;;;;7.92;64.93;100967.22;5070013;28;20052;-46
2021/04/28 00:16:44;;;;;;;7.50;4.50;;;;;;;7.90;64.80;100969.44;5055379;28;20130;-45
2021/04/28 00:19:11;;;;;;;7.40;4.60;;;;;;;7.87;64.94;100968.03;5074522;28;20485;-48
2021/04/28 00:21:38;;;;;;;7.13;4.70;;;;;;;7.85;65.18;100961.09;5075176;28;20464;-47
2021/04/28 00:24:05;;;;;;;9.02;5.03;;;;;;;7.82;65.29;100959.69;5074323;28;20076;-46
2021/04/28 00:26:33;;;;;;;6.03;3.88;;;;;;;7.80;65.51;100955.53;5074268;28;20052;-46
2021/04/28 00:29:00;;;;;;;7.78;4.93;;;;;;;7.75;65.26;100953.59;5074406;28;20052;-47
2021/04/28 00:31:27;;;;;;;9.07;5.25;;;;;;;7.75;65.45;100952.78;5075212;28;20049;-46
2021/04/28 00:33:54;;;;;;;8.30;5.38;;;;;;;7.73;65.46;100947.50;5073826;28;20177;-47
2021/04/28 00:36:21;;;;;;;8.40;4.53;;;;;;;7.69;65.74;100949.16;5074504;28;20075;-46
2021/04/28 00:38:48;;;;;;;7.63;4.10;;;;;;;7.67;65.91;100950.53;5074265;28;20088;-48
2021/04/28 00:41:15;;;;;;;7.68;4.28;;;;;;;7.65;66.12;100948.03;5074257;28;20505;-46
2021/04/28 00:43:43;;;;;;;6.63;4.90;;;;;;;7.63;65.97;100941.94;5074223;28;20139;-49
2021/04/28 00:46:10;;;;;;;9.63;5.32;;;;;;;7.61;65.91;100935.81;5074384;28;20052;-48
2021/04/28 00:48:37;;;;;;;8.13;4.50;;;;;;;7.58;65.93;100941.94;5073307;28;20493;-47
2021/04/28 00:51:06;;;;;;;8.20;4.32;;;;;;;7.58;66.12;100934.44;5074382;28;20433;-46
2021/04/28 00:53:33;;;;;;;7.38;4.32;;;;;;;7.56;66.37;100933.91;5074316;28;20059;-47
2021/04/28 00:56:00;;;;;;;6.20;4.68;;;;;;;7.54;66.39;100926.94;5073591;28;20045;-47
2021/04/28 00:58:28;;;;;;;6.00;4.10;;;;;;;7.52;66.41;100926.38;5074360;28;20106;-46
2021/04/28 01:00:57;;;;;;;6.72;3.78;;;;;;;7.51;66.25;100927.50;5055971;28;20110;-48
2021/04/28 01:03:27;;;;;;;7.63;4.50;;;;;;;7.47;66.24;100923.59;5073798;28;20050;-47
2021/04/28 01:05:57;;;;;;;6.05;4.43;;;;;;;7.43;66.55;100911.38;5074040;28;20053;-46
2021/04/28 01:08:24;;;;;;;7.90;4.82;;;;;;;7.41;66.54;100919.16;5055699;28;20055;-47
2021/04/28 01:10:52;;;;;;;7.25;5.10;;;;;;;7.38;66.50;100911.41;5073592;28;20048;-45
2021/04/28 01:13:21;;;;;;;8.23;4.70;;;;;;;7.34;66.71;100913.88;5054032;28;20051;-46
2021/04/28 01:15:50;;;;;;;9.15;4.70;;;;;;;7.33;66.94;100919.72;5067964;28;20102;-47
2021/04/28 01:18:20;;;;;;;7.22;4.55;;;;;;;7.29;66.92;100913.88;5056073;28;20048;-48
2021/04/28 01:20:48;;;;;;;6.65;4.18;;;;;;;7.27;67.27;100913.31;5073676;28;20448;-48
2021/04/28 01:23:17;;;;;;;9.05;5.30;;;;;;;7.26;67.50;100918.03;5055302;28;20051;-48
2021/04/28 01:25:47;;;;;;;8.23;4.85;;;;;;;7.24;67.21;100914.69;5055507;28;20098;-48
2021/04/28 01:28:19;;;;;;;6.18;3.83;;;;;;;7.23;67.54;100913.03;5073654;28;20056;-46
2021/04/28 01:30:55;;;;;;;10.02;5.30;;;;;;;7.22;67.77;100905.81;5055282;28;20053;-47
2021/04/28 01:33:26;;;;;;;7.68;4.80;;;;;;;7.23;67.76;100904.69;5073643;28;20405;-46
2021/04/28 01:35:55;;;;;;;8.35;4.63;;;;;;;7.24;67.81;100894.44;5073461;28;20055;-49
2021/04/28 01:38:26;;;;;;;7.63;4.32;;;;;;;7.24;67.73;100894.44;5072745;28;20106;-47
2021/04/28 01:40:55;;;;;;;9.30;5.32;;;;;;;7.24;68.15;100902.75;5072246;28;20045;-49
2021/04/28 01:43:24;;;;;;;7.07;4.68;;;;;;;7.22;68.44;100897.47;5073383;28;20055;-49
2021/04/28 01:45:54;;;;;;;7.10;4.38;;;;;;;7.23;68.78;100898.31;5054661;28;20041;-48
2021/04/28 01:48:22;;;;;;;5.53;3.50;;;;;;;7.24;68.78;100895.28;5073133;28;20567;-46
2021/04/28 01:50:51;;;;;;;5.78;3.90;;;;;;;7.25;68.87;100893.31;5072488;28;20105;-46
2021/04/28 01:53:23;;;;;;;8.20;4.70;;;;;;;7.24;68.60;100892.50;5073376;28;20425;-49
2021/04/28 01:55:53;;;;;;;6.80;3.72;;;;;;;7.23;69.13;100895.53;5073217;28;20227;-52
2021/04/28 01:58:43;;;;;;;6.82;4.13;;;;;;;7.22;69.11;100882.78;5054623;28;20055;-51
2021/04/28 02:01:22;;;;;;;8.45;4.80;;;;;;;7.20;69.23;100885.81;5055056;28;20049;-49
2021/04/28 02:03:53;;;;;;;6.55;4.60;;;;;;;7.21;69.81;100892.22;5055071;28;20106;-49
2021/04/28 02:06:20;;;;;;;5.80;4.22;;;;;;;7.20;69.60;100883.03;5072566;28;20135;-49
2021/04/28 02:08:48;;;;;;;6.57;4.38;;;;;;;7.20;69.48;100880.28;5072825;28;20504;-49
2021/04/28 02:11:16;;;;;;;6.60;4.82;;;;;;;7.21;69.73;100884.72;5072661;28;20090;-49
2021/04/28 02:13:47;;;;;;;8.73;5.43;;;;;;;7.20;69.48;100887.75;5053917;28;20062;-50
2021/04/28 02:16:47;;;;;;;9.30;5.22;;;;;;;7.16;69.90;100876.41;5027452;28;20048;-49
2021/04/28 02:19:17;;;;;;;7.50;4.05;;;;;;;7.17;69.73;100875.31;5061416;28;20066;-50
2021/04/28 02:21:49;;;;;;;9.75;5.35;;;;;;;7.18;69.70;100874.19;5054780;28;20062;-50
2021/04/28 02:24:52;;;;;;;8.02;4.57;;;;;;;7.16;70.11;100872.81;5053570;28;20048;-48
2021/04/28 02:27:28;;;;;;;8.65;5.20;;;;;;;7.16;69.95;100868.09;5054074;28;20056;-48
2021/04/28 02:29:56;;;;;;;8.60;5.25;;;;;;;7.15;69.82;100863.66;5072326;28;20048;-47
2021/04/28 02:32:25;;;;;;;6.88;4.25;;;;;;;7.14;69.81;100861.13;5053986;28;20486;-49
2021/04/28 02:35:13;;;;;;;6.03;3.58;;;;;;;7.11;69.69;100862.53;5072216;28;20079;-49
2021/04/28 02:37:58;;;;;;;7.57;4.30;;;;;;;7.09;69.34;100859.19;5054091;28;20056;-46
2021/04/28 02:40:45;;;;;;;7.47;4.70;;;;;;;7.05;69.15;100851.69;5071852;28;20059;-48
2021/04/28 02:43:14;;;;;;;6.38;4.18;;;;;;;7.05;69.09;100858.06;5072207;28;20416;-48
2021/04/28 02:45:49;;;;;;;7.85;4.93;;;;;;;7.02;68.85;100850.28;5054464;28;20072;-47
2021/04/28 02:48:20;;;;;;;6.10;4.68;;;;;;;7.00;69.21;100846.13;5071195;28;20143;-48
2021/04/28 02:51:07;;;;;;;6.50;3.75;;;;;;;6.94;68.96;100848.09;5071838;28;20672;-47
2021/04/28 02:53:36;;;;;;;5.25;3.40;;;;;;;6.92;68.89;100855.84;5071629;28;20072;-47
2021/04/28 02:56:04;;;;;;;6.18;4.18;;;;;;;6.91;68.96;100848.63;5053544;28;20049;-52
2021/04/28 02:58:33;;;;;;;8.20;4.18;;;;;;;6.90;68.67;100849.72;5053834;28;20049;-50
2021/04/28 03:01:06;;;;;;;8.02;4.90;;;;;;;6.87;68.82;100847.50;5053287;28;20052;-48
2021/04/28 03:03:34;;;;;;;6.85;4.43;;;;;;;6.86;68.79;100848.63;5071667;28;20470;-46
2021/04/28 03:06:10;;;;;;;7.25;4.40;;;;;;;6.83;68.66;100846.38;5054252;28;20048;-47
2021/04/28 03:08:46;;;;;;;6.30;4.55;;;;;;;6.81;68.53;100834.72;5070854;28;20128;-47
2021/04/28 03:11:13;;;;;;;7.32;3.50;;;;;;;6.78;68.65;100832.53;5072011;28;20049;-46
2021/04/28 03:13:43;;;;;;;5.88;3.60;;;;;;;6.75;68.30;100835.84;5053438;28;20048;-50
2021/04/28 03:16:10;;;;;;;6.50;3.83;;;;;;;6.73;68.37;100832.50;5052993;28;20055;-48
2021/04/28 03:18:38;;;;;;;8.32;4.78;;;;;;;6.71;67.97;100832.78;5053879;28;20124;-47
2021/04/28 03:21:10;;;;;;;6.78;4.40;;;;;;;6.68;68.16;100822.25;5071813;28;20110;-47
2021/04/28 03:23:41;;;;;;;6.07;4.40;;;;;;;6.66;67.92;100830.00;5053008;28;20056;-49
2021/04/28 03:26:10;;;;;;;7.47;4.22;;;;;;;6.66;67.81;100829.16;5071355;28;20064;-47
2021/04/28 03:28:41;;;;;;;5.70;3.58;;;;;;;6.62;67.68;100831.63;5071221;28;20086;-48
2021/04/28 03:31:08;;;;;;;6.70;4.50;;;;;;;6.62;67.88;100828.03;5070891;28;20048;-50
2021/04/28 03:33:36;;;;;;;6.35;4.03;;;;;;;6.60;67.68;100831.09;5053722;28;20113;-47
2021/04/28 03:36:07;;;;;;;8.70;5.18;;;;;;;6.58;67.54;100827.78;5070747;28;20056;-46
2021/04/28 03:38:53;;;;;;;7.47;4.13;;;;;;;6.52;67.75;100829.69;5053178;28;20049;-48
2021/04/28 03:41:23;;;;;;;4.90;3.42;;;;;;;6.49;67.37;100818.31;5052743;28;20074;-51
2021/04/28 03:43:51;;;;;;;6.70;4.55;;;;;;;6.47;67.82;100820.53;5052968;28;20056;-45
2021/04/28 03:46:20;;;;;;;4.45;2.88;;;;;;;6.43;67.47;100819.41;5052979;28;20181;-45
2021/04/28 03:48:51;;;;;;;4.97;3.35;;;;;;;6.41;67.95;100816.91;5053150;28;20059;-49
2021/04/28 03:51:20;;;;;;;5.25;3.60;;;;;;;6.39;67.70;100819.13;5051377;28;20048;-46
2021/04/28 03:54:10;;;;;;;6.32;3.47;;;;;;;6.32;67.38;100824.09;5042281;28;20243;-46
2021/04/28 03:56:39;;;;;;;6.10;4.35;;;;;;;6.31;67.77;100827.97;5069495;28;20037;-47
2021/04/28 03:59:08;;;;;;;5.88;3.72;;;;;;;6.30;67.50;100819.91;5070421;28;20049;-47
2021/04/28 04:01:35;;;;;;;4.50;3.08;;;;;;;6.27;67.13;100826.84;5052551;28;20059;-49
2021/04/28 04:04:07;;;;;;;5.97;3.88;;;;;;;6.26;67.57;100818.78;5070748;28;20094;-47
2021/04/28 04:06:55;;;;;;;6.15;3.22;;;;;;;6.22;67.34;100821.25;5070208;28;20055;-46
2021/04/28 04:09:41;;;;;;;5.80;4.05;;;;;;;6.20;67.25;100827.06;5070513;28;20600;-49
2021/04/28 04:12:09;;;;;;;5.15;3.08;;;;;;;6.20;67.22;100824.31;5069113;28;20516;-46
2021/04/28 04:14:42;;;;;;;5.75;4.07;;;;;;;6.18;67.18;100823.78;5051663;28;20401;-48
2021/04/28 04:17:12;;;;;;;6.38;4.10;;;;;;;6.16;67.20;100828.75;5051252;28;20041;-50
2021/04/28 04:19:40;;;;;;;7.28;4.38;;;;;;;6.16;67.03;100831.50;5051008;28;20052;-46
2021/04/28 04:22:23;;;;;;;7.75;4.38;;;;;;;6.14;67.26;100830.13;5070314;28;20489;-50
2021/04/28 04:24:58;;;;;;;6.68;3.35;;;;;;;6.14;67.01;100832.88;5070787;28;20421;-48
2021/04/28 04:27:26;;;;;;;5.95;3.72;;;;;;;6.12;67.09;100822.06;5069884;28;20048;-46
2021/04/28 04:29:59;;;;;;;;;;;;;;;6.06;67.33;100825.09;5033478;28;20053;-48
2021/04/28 04:32:31;;;;;;;6.00;3.45;;;;;;;6.03;67.58;100825.63;5066151;28;19939;-50
2021/04/28 04:35:17;;;;;;;8.52;4.57;;;;;;;6.06;67.40;100825.09;5050605;28;20056;-48
2021/04/28 04:38:03;;;;;;;11.02;4.88;;;;;;;6.07;67.57;100826.75;5069326;28;20133;-49
2021/04/28 04:40:50;;;;;;;5.25;3.38;;;;;;;6.08;67.45;100822.88;5069804;28;20059;-47
2021/04/28 04:43:43;;;;;;;8.30;4.90;;;;;;;6.09;67.66;100827.31;5051254;28;20139;-48
2021/04/28 04:46:30;;;;;;;5.78;3.00;;;;;;;6.11;67.59;100825.13;5069929;28;20068;-46
2021/04/28 04:48:57;;;;;;;5.95;3.45;;;;;;;6.13;67.31;100826.50;5070128;28;20056;-47
2021/04/28 04:51:24;;;;;;;8.13;4.57;;;;;;;6.16;67.55;100831.50;5065660;28;20052;-47
2021/04/28 04:53:51;;;;;;;6.65;4.18;;;;;;;6.18;67.38;100828.47;5068991;28;20052;-47
2021/04/28 04:56:18;;;;;;;10.25;5.00;;;;;;;6.19;67.15;100828.19;5069258;28;20056;-46
2021/04/28 04:58:45;;;;;;;5.15;3.58;;;;;;;6.21;67.48;100827.91;5069673;28;20509;-47
2021/04/28 05:01:12;;;;;;;6.57;3.72;;;;;;;6.23;67.58;100823.78;5051799;28;20102;-46
2021/04/28 05:03:40;;;;;;;6.70;3.63;;;;;;;6.27;67.28;100823.22;5072978;28;20450;-47
2021/04/28 05:06:07;;;;;;;5.45;3.55;;;;;;;6.28;67.30;100817.41;5054110;28;20057;-46
2021/04/28 05:08:34;;;;;;;4.90;3.17;;;;;;;6.33;67.30;100822.97;5067584;28;20117;-46
2021/04/28 05:11:01;;;;;;;5.97;3.97;;;;;;;6.35;67.24;100823.56;5073928;28;20205;-49
2021/04/28 05:13:27;;;;;;;4.55;2.95;;;;;;;6.37;67.39;100821.34;5073843;28;20041;-50
2021/04/28 05:15:54;;;;;;;6.63;3.13;;;;;;;6.41;66.97;100822.44;5073366;28;20052;-46
2021/04/28 05:18:21;;;;;;;5.47;3.65;;;;;;;6.43;66.97;100823.00;5055421;28;20402;-47
2021/04/28 05:20:51;;;;;;;6.60;3.90;;;;;;;6.46;67.16;100816.91;5055866;28;20135;-50
2021/04/28 05:23:19;;;;;;;4.95;3.67;;;;;;;6.51;67.51;100819.72;5071934;28;20038;-51
2021/04/28 05:26:13;;;;;;;5.15;3.70;;;;;;;6.56;67.42;100821.66;5054787;28;20052;-53
2021/04/28 05:28:40;;;;;;;6.53;4.10;;;;;;;6.62;67.28;100817.78;5072862;28;20434;-46
2021/04/28 05:31:06;;;;;;;6.28;4.10;;;;;;;6.68;66.77;100825.00;5073484;28;20056;-47
2021/04/28 05:33:33;;;;;;;8.48;4.43;;;;;;;6.75;67.03;100827.53;5073188;28;20044;-50
2021/04/28 05:36:02;;;;;;;7.38;4.10;;;;;;;6.81;66.57;100830.00;5072691;28;20452;-49
2021/04/28 05:38:29;;;;;;;6.10;3.75;;;;;;;6.87;66.51;100833.63;5073073;28;20068;-49
2021/04/28 05:40:56;;;;;;;7.80;3.78;;;;;;;6.93;66.08;100827.00;5044382;28;20449;-48
2021/04/28 05:43:23;;;;;;;6.53;3.22;;;;;;;7.03;65.80;100826.16;5072826;28;20048;-49
2021/04/28 05:45:50;;;;;;;5.10;3.47;;;;;;;7.09;65.81;100828.66;5073070;28;20448;-49
2021/04/28 05:48:17;;;;;;;5.60;4.13;;;;;;;7.16;65.43;100820.91;5072875;28;20051;-48
2021/04/28 05:50:45;;;;;;;7.68;3.92;;;;;;;7.24;64.69;100825.88;5072619;28;20053;-50
2021/04/28 05:53:14;;;;;;;8.68;4.00;;;;;;;7.30;64.66;100832.28;5072992;28;20071;-51
2021/04/28 05:55:41;;;;;;;6.72;3.90;;;;;;;7.37;64.13;100821.72;5072673;28;20056;-50
2021/04/28 05:58:08;;;;;;;5.68;3.65;;;;;;;7.45;63.59;100823.09;5072778;28;20044;-47
2021/04/28 06:00:36;;;;;;;6.68;3.40;;;;;;;7.51;63.07;100817.25;5072781;28;20056;-49
2021/04/28 06:03:04;;;;;;;5.80;3.25;;;;;;;7.58;63.02;100820.59;5072762;28;20053;-47
2021/04/28 06:05:31;;;;;;;7.38;3.95;;;;;;;7.68;62.44;100816.13;5072065;28;20044;-45
2021/04/28 06:07:58;;;;;;;6.20;3.67;;;;;;;7.77;61.67;100818.06;5072423;28;20083;-49
2021/04/28 06:10:26;;;;;;;10.00;3.70;;;;;;;7.88;61.67;100818.84;5072347;28;20049;-47
2021/04/28 06:12:53;;;;;;;6.78;3.70;;;;;;;8.01;61.17;100820.19;5070744;28;20044;-49
2021/04/28 06:15:21;;;;;;;6.55;3.60;;;;;;;8.16;60.74;100814.59;5072138;28;20041;-47
2021/04/28 06:17:48;;;;;;;7.22;3.40;;;;;;;8.33;60.28;100825.38;5072457;28;20048;-49
2021/04/28 06:20:17;;;;;;;5.60;3.33;;;;;;;8.51;59.52;100820.00;5071662;28;20037;-48
2021/04/28 06:22:44;;;;;;;6.72;3.50;;;;;;;8.68;59.01;100818.78;5071369;28;20045;-48
2021/04/28 06:25:13;;;;;;;7.97;3.50;;;;;;;8.83;58.32;100815.91;5071264;28;20493;-47
2021/04/28 06:27:41;;;;;;;8.52;3.85;;;;;;;8.98;57.71;100816.66;5072429;28;20048;-48
2021/04/28 06:30:10;;;;;;;5.60;3.65;;;;;;;9.14;57.49;100805.38;5071976;28;20032;-48
2021/04/28 06:32:37;;;;;;;7.85;3.90;;;;;;;9.30;57.02;100812.47;5071936;28;20543;-50
2021/04/28 06:35:06;;;;;;;6.57;3.45;;;;;;;9.46;55.95;100819.56;5072055;28;20520;-48
2021/04/28 06:37:33;;;;;;;6.10;3.97;;;;;;;9.58;54.99;100803.31;5072134;28;20044;-49
2021/04/28 06:40:00;;;;;;;9.05;4.43;;;;;;;9.70;54.06;100800.09;5070902;28;20060;-50
2021/04/28 06:42:27;;;;;;;8.25;3.70;;;;;;;9.83;54.10;100804.13;5071873;28;20044;-48
2021/04/28 06:44:56;;;;;;;9.10;4.43;;;;;;;9.96;53.68;100809.03;5072209;28;20143;-52
2021/04/28 06:47:23;;;;;;;7.00;3.88;;;;;;;10.14;53.20;100802.69;5070850;28;20055;-50
2021/04/28 06:49:51;;;;;;;6.18;4.00;;;;;;;10.32;53.12;100795.50;5072270;28;20131;-48
2021/04/28 06:52:18;;;;;;;5.00;3.72;;;;;;;10.52;53.26;100792.44;5071706;28;20048;-48
2021/04/28 06:54:45;;;;;;;5.63;3.65;;;;;;;10.70;52.68;100790.78;5071316;28;20056;-47
2021/04/28 06:57:12;;;;;;;5.32;3.72;;;;;;;10.78;52.35;100792.06;5071376;28;20063;-48
2021/04/28 06:59:39;;;;;;;7.13;3.70;;;;;;;10.87;52.36;100785.50;5072075;28;20049;-48
2021/04/28 07:02:07;;;;;;;6.05;3.50;;;;;;;11.01;52.26;100793.91;5071027;28;20501;-47
2021/04/28 07:04:39;;;;;;;5.55;3.28;;;;;;;11.11;51.82;100785.38;5071951;28;20460;-49
2021/04/28 07:07:06;;;;;;;5.68;3.65;;;;;;;11.13;50.78;100790.66;5076257;28;20044;-49
2021/04/28 07:09:33;;;;;;;4.85;3.15;;;;;;;11.23;50.65;100784.91;5076874;28;20044;-51
2021/04/28 07:12:00;;;;;;;6.68;3.60;;;;;;;11.33;50.40;100788.34;5071447;28;20459;-49
2021/04/28 07:14:29;;;;;;;5.50;3.33;;;;;;;11.44;50.80;100788.16;5071070;28;20573;-49
2021/04/28 07:16:56;;;;;;;5.68;3.30;;;;;;;11.55;50.96;100784.91;5071213;28;20052;-47
2021/04/28 07:19:24;;;;;;;4.93;3.22;;;;;;;11.61;50.78;100785.59;5071489;28;20048;-47
2021/04/28 07:21:51;;;;;;;5.32;3.20;;;;;;;11.73;50.41;100785.97;5052753;28;20417;-50
2021/04/28 07:24:17;;;;;;;5.18;3.50;;;;;;;11.84;50.19;100797.78;5071141;28;20040;-47
2021/04/28 07:26:45;;;;;;;9.63;3.63;;;;;;;11.89;49.64;100795.72;5071259;28;20056;-47
2021/04/28 07:29:12;;;;;;;5.40;3.17;;;;;;;11.95;49.09;100800.09;5070733;28;20127;-48
2021/04/28 07:31:39;;;;;;;6.38;3.20;;;;;;;12.08;49.17;100795.63;5071532;28;20052;-46
2021/04/28 07:34:06;;;;;;;5.95;3.28;;;;;;;12.21;49.14;100791.16;5070898;28;20040;-46
2021/04/28 07:36:34;;;;;;;5.30;3.08;;;;;;;12.36;49.09;100799.25;5070639;28;20102;-47
2021/04/28 07:39:05;;;;;;;5.55;3.28;;;;;;;12.43;48.17;100799.63;5071014;28;20052;-49
2021/04/28 07:41:32;;;;;;;5.38;3.70;;;;;;;12.42;47.63;100800.78;5071474;28;20044;-48
2021/04/28 07:43:59;;;;;;;6.28;2.95;;;;;;;12.47;48.34;100803.47;5052466;28;20049;-49
2021/04/28 07:46:28;;;;;;;5.00;2.97;;;;;;;12.62;48.32;100803.13;5071283;28;20052;-46
2021/04/28 07:48:55;;;;;;;5.88;3.38;;;;;;;12.73;47.82;100804.56;5070919;28;20056;-47
2021/04/28 07:51:22;;;;;;;4.78;3.35;;;;;;;12.79;47.43;100807.25;5070267;28;20075;-47
2021/04/28 07:53:50;;;;;;;9.52;3.65;;;;;;;12.81;47.03;100810.53;5070993;28;20462;-48
2021/04/28 07:56:17;;;;;;;6.20;3.55;;;;;;;12.87;47.14;100798.91;5071111;28;20121;-46
2021/04/28 07:58:45;;;;;;;4.85;3.10;;;;;;;12.81;46.58;100797.38;5070263;28;20072;-48
2021/04/28 08:01:12;;;;;;;5.60;2.83;;;;;;;12.90;47.11;100797.47;5071069;28;20060;-47
2021/04/28 08:03:39;;;;;;;5.95;3.08;;;;;;;13.07;46.45;100797.59;5070186;28;20048;-49
2021/04/28 08:06:06;;;;;;;6.97;3.55;;;;;;;13.14;45.90;100809.22;5070899;28;20102;-46
2021/04/28 08:08:33;;;;;;;4.43;3.08;;;;;;;13.25;45.60;100799.41;5070855;28;20044;-46
2021/04/28 08:11:00;;;;;;;5.55;3.42;;;;;;;13.39;45.51;100796.53;5070361;28;20127;-45
2021/04/28 08:13:27;;;;;;;4.82;3.28;;;;;;;13.53;45.39;100800.09;5070761;28;20049;-46
2021/04/28 08:15:55;;;;;;;4.72;3.22;;;;;;;13.60;45.17;100796.84;5070831;28;20071;-49
2021/04/28 08:18:22;;;;;;;6.60;3.25;;;;;;;13.66;45.23;100793.56;5069869;28;20067;-47
2021/04/28 08:20:49;;;;;;;6.07;3.15;;;;;;;13.82;45.22;100799.59;5070992;28;20041;-49
2021/04/28 08:23:16;;;;;;;4.90;3.10;;;;;;;14.07;44.66;100787.66;5070789;28;20060;-51
2021/04/28 08:25:43;;;;;;;4.63;3.00;;;;;;;14.14;43.98;100799.25;5069524;28;20056;-50
2021/04/28 08:28:11;;;;;;;5.22;2.72;;;;;;;14.11;43.42;100793.47;5070734;28;20048;-48
2021/04/28 08:30:39;;;;;;;6.75;3.22;;;;;;;13.99;43.21;100785.63;5070120;28;20044;-49
2021/04/28 08:33:13;;;;;;;6.15;3.30;;;;;;;14.00;43.13;100792.09;5070132;28;20486;-52
2021/04/28 08:35:40;;;;;;;4.82;3.08;;;;;;;14.20;43.58;100785.88;5070431;28;20049;-50
2021/04/28 08:38:07;;;;;;;5.20;2.83;;;;;;;14.50;43.30;100784.19;5073644;28;20060;-46
2021/04/28 08:40:35;;;;;;;4.68;3.08;;;;;;;14.77;43.18;100794.31;5055643;28;20493;-48
2021/04/28 08:43:02;;;;;;;4.88;3.08;;;;;;;14.96;41.99;100791.19;5074327;28;20068;-52
2021/04/28 08:45:32;;;;;;;4.90;3.42;;;;;;;15.04;41.31;100793.16;5074061;28;20071;-49
2021/04/28 08:47:59;;;;;;;6.03;3.60;;;;;;;15.00;41.27;100795.78;5074027;28;20101;-53
2021/04/28 08:50:26;;;;;;;7.32;3.13;;;;;;;15.07;41.06;100796.13;5074148;28;20044;-49
2021/04/28 08:52:54;;;;;;;6.53;3.60;;;;;;;15.12;40.47;100793.16;5073969;28;20102;-47
2021/04/28 08:55:21;;;;;;;7.55;3.50;;;;;;;15.32;40.51;100788.00;5073810;28;20826;-49
2021/04/28 08:57:48;;;;;;;8.23;3.60;;;;;;;15.70;39.73;100788.97;5074177;28;20040;-47
2021/04/28 09:00:16;;;;;;;6.18;3.55;;;;;;;15.99;39.52;100778.91;5073670;28;20087;-49
2021/04/28 09:02:55;;;;;;;5.15;2.65;;;;;;;16.32;38.37;100787.53;5074020;28;20143;-45
2021/04/28 09:05:23;;;;;;;5.20;3.08;;;;;;;16.48;38.91;100785.78;5074070;28;20071;-51
2021/04/28 09:07:50;;;;;;;9.68;3.60;;;;;;;16.70;37.81;100793.97;5073639;28;20139;-49
2021/04/28 09:10:19;;;;;;;5.50;3.22;;;;;;;16.95;37.71;100788.47;5073500;28;20044;-48
2021/04/28 09:12:54;;;;;;;5.30;3.28;;;;;;;17.29;37.66;100784.53;5074225;28;20448;-48
2021/04/28 09:15:31;;;;;;;5.35;2.75;;;;;;;17.52;35.55;100786.59;5073282;28;20452;-50
2021/04/28 09:17:59;;;;;;;5.03;3.30;;;;;;;17.25;37.35;100784.38;5074068;28;20055;-48
2021/04/28 09:20:34;;;;;;;7.57;3.85;;;;;;;17.27;36.77;100787.69;5073742;28;20049;-46
2021/04/28 09:23:26;;;;;;;5.57;3.63;;;;;;;17.14;37.73;100783.16;5063111;28;20056;-47
2021/04/28 09:26:16;;;;;;;5.63;3.30;;;;;;;17.14;38.05;100777.53;5073975;28;20047;-49
2021/04/28 09:29:02;;;;;;;5.32;3.60;;;;;;;17.19;39.37;100785.75;5073222;28;20075;-47
2021/04/28 09:31:29;;;;;;;6.93;3.55;;;;;;;17.22;38.48;100782.25;5073570;28;20056;-48
2021/04/28 09:33:59;;;;;;;6.72;3.53;;;;;;;17.24;37.99;100774.28;5073861;28;20049;-47
2021/04/28 09:36:30;;;;;;;6.22;3.50;;;;;;;17.36;38.15;100765.06;5072870;28;20041;-49
2021/04/28 09:39:01;;;;;;;6.13;4.20;;;;;;;17.53;37.55;100764.88;5073748;28;20455;-49
2021/04/28 09:41:32;;;;;;;6.03;3.63;;;;;;;17.62;37.28;100773.22;5073371;28;20041;-48
2021/04/28 09:44:02;;;;;;;6.10;3.58;;;;;;;17.71;37.44;100766.34;5073117;28;20059;-47
2021/04/28 09:46:33;;;;;;;8.18;3.85;;;;;;;17.79;37.08;100771.06;5073193;28;20059;-51
2021/04/28 09:49:06;;;;;;;5.75;3.20;;;;;;;17.77;37.57;100772.59;5071443;28;20060;-50
2021/04/28 09:51:34;;;;;;;7.47;4.10;;;;;;;17.81;37.68;100768.72;5072977;28;20094;-47
2021/04/28 09:54:12;;;;;;;8.07;3.92;;;;;;;17.81;37.86;100765.06;5073073;28;20052;-50
2021/04/28 09:56:40;;;;;;;5.78;3.55;;;;;;;17.73;38.04;100754.72;5072542;28;20052;-49
2021/04/28 09:59:08;;;;;;;6.00;3.33;;;;;;;17.81;38.63;100760.22;5069819;28;20136;-49
2021/04/28 10:01:37;;;;;;;6.80;3.42;;;;;;;17.98;38.91;100756.41;5073208;28;20072;-47
2021/04/28 10:04:08;;;;;;;9.00;3.40;;;;;;;18.33;37.92;100748.28;5071841;28;20098;-47
2021/04/28 10:06:43;;;;;;;5.68;3.92;;;;;;;18.57;37.64;100751.06;5072769;28;20459;-50
2021/04/28 10:09:27;;;;;;;6.47;3.83;;;;;;;18.86;37.63;100749.13;5072796;28;20040;-49
2021/04/28 10:11:55;;;;;;;7.10;3.67;;;;;;;19.17;37.18;100748.47;5072502;28;20044;-50
2021/04/28 10:14:21;;;;;;;4.88;3.92;;;;;;;18.88;37.82;100752.44;5072298;28;20536;-49
2021/04/28 10:16:49;;;;;;;6.95;3.63;;;;;;;19.01;36.62;100744.72;5073017;28;20052;-47
2021/04/28 10:19:17;;;;;;;4.75;3.55;;;;;;;19.12;36.38;100737.38;5071621;28;20497;-51
2021/04/28 10:21:46;;;;;;;7.68;3.67;;;;;;;19.35;36.25;100744.13;5072810;28;20053;-48
2021/04/28 10:24:13;;;;;;;6.90;3.67;;;;;;;19.68;35.90;100751.50;5072151;28;20060;-47
2021/04/28 10:26:41;;;;;;;7.78;4.00;;;;;;;19.81;36.19;100734.06;5072618;28;20140;-47
2021/04/28 10:29:09;;;;;;;5.70;3.65;;;;;;;20.05;35.98;100737.91;5072102;28;20516;-51
2021/04/28 10:31:37;;;;;;;5.43;3.50;;;;;;;20.29;35.85;100730.03;5053668;28;20052;-47
2021/04/28 10:34:12;;;;;;;6.65;3.20;;;;;;;20.16;35.78;100727.69;5072343;28;20074;-48
2021/04/28 10:36:43;;;;;;;7.47;3.90;;;;;;;19.75;35.37;100729.06;5072275;28;20434;-48
2021/04/28 10:39:11;;;;;;;6.05;3.45;;;;;;;19.60;36.38;100720.16;5071469;28;20051;-52
2021/04/28 10:41:40;;;;;;;6.22;3.78;;;;;;;19.47;36.42;100712.09;5072198;28;20489;-51
2021/04/28 10:44:43;;;;;;;6.68;4.03;;;;;;;19.31;34.14;100714.91;5071809;28;20456;-50
2021/04/28 10:47:24;;;;;;;4.78;3.00;;;;;;;19.31;35.57;100716.91;5071147;28;20048;-51
2021/04/28 10:50:12;;;;;;;8.38;3.75;;;;;;;19.01;35.08;100719.28;5052450;28;20056;-49
2021/04/28 10:52:45;;;;;;;7.32;3.67;;;;;;;18.97;35.35;100716.38;5049561;28;20041;-49
2021/04/28 10:55:45;;;;;;;6.95;3.70;;;;;;;18.93;36.22;100702.13;5065495;28;20369;-50
2021/04/28 10:58:35;;;;;;;6.63;3.70;;;;;;;18.82;35.58;100723.59;5050152;28;20061;-51
2021/04/28 11:01:34;;;;;;;4.93;3.20;;;;;;;18.95;36.73;100706.59;5068848;28;20127;-50
2021/04/28 11:04:02;;;;;;;8.43;3.70;;;;;;;18.98;36.81;100706.69;5071449;28;20517;-50
2021/04/28 11:06:37;;;;;;;6.22;3.88;;;;;;;19.13;36.36;100707.91;5070916;28;20409;-49
2021/04/28 11:09:25;;;;;;;7.93;3.60;;;;;;;19.28;34.37;100704.31;5071174;28;20051;-48
2021/04/28 11:11:55;;;;;;;6.38;3.63;;;;;;;19.09;35.91;100707.81;5070855;28;20087;-49
2021/04/28 11:14:30;;;;;;;6.55;3.45;;;;;;;18.96;36.32;100708.25;5071028;28;20060;-49
2021/04/28 11:17:19;;;;;;;8.18;3.50;;;;;;;19.07;37.14;100698.88;5071260;28;20373;-48
2021/04/28 11:19:50;;;;;;;7.15;3.65;;;;;;;19.23;36.11;100698.91;5071123;28;20463;-49
2021/04/28 11:22:22;;;;;;;9.77;3.67;;;;;;;19.00;37.00;100701.47;5071001;28;20103;-52
2021/04/28 11:25:16;;;;;;;6.28;3.55;;;;;;;19.00;36.45;100703.47;5071199;28;20052;-48
2021/04/28 11:27:57;;;;;;;7.13;3.95;;;;;;;18.96;36.04;100700.56;5061575;28;20041;-47
2021/04/28 11:30:27;;;;;;;5.75;3.28;;;;;;;18.89;36.88;100708.84;5070953;28;20440;-50
2021/04/28 11:33:12;;;;;;;12.07;4.10;;;;;;;18.91;36.33;100695.16;5071332;28;20409;-50
2021/04/28 11:35:41;;;;;;;7.03;3.70;;;;;;;18.81;36.64;100690.00;5070562;28;20044;-48
2021/04/28 11:38:11;;;;;;;7.70;3.50;;;;;;;18.73;36.42;100694.66;5071068;28;20044;-51
2021/04/28 11:40:50;;;;;;;8.27;3.63;;;;;;;18.72;37.27;100695.00;5070746;28;20049;-49
2021/04/28 11:43:23;;;;;;;9.27;3.40;;;;;;;18.74;37.23;100690.66;5069363;28;20157;-48
2021/04/28 11:45:51;;;;;;;7.03;3.47;;;;;;;18.56;37.73;100697.72;5070751;28;20080;-49
2021/04/28 11:48:21;;;;;;;6.40;3.80;;;;;;;18.36;38.05;100693.06;5070991;28;20469;-50